Record high temperature 45.5°C Record low temperature -0.3°C Record high gust 87.3 km/h Record high average 77.7 km/h Record daily rain 484.8 mm Record low windchill -5.8°C Record high barometer 1043.6 hPa Record low barometer 978.0 hPa
Daily high pressure 1017.1 mb Daily low pressure 1015.4 mb Daily low windchill 19.3°C Daily high heat index 22.3°C Daily high gust speed 13.0 kmh NE Daily high average speed 8.3 kmh NNE
MeteoMurcia.com
Ultima grabación a: 12:00 Data: 17 October 2021, time of next update: 12:05
Tiempo actualmostly clear Temperatura actual22.2°C (72.0°F) (Indice de Calor22.9°C ), Temperatura aparente 23.9°C
Temperatura máxima (desde medianoche)22.3°C at: 11:57 Temperatura mínima (desde medianoche)19.3°C at: 06:44
Velocidad media del viento (diez minutos)3.7 kmh (2.0 kts) Dirección del viento (diez minutos)N (11°)
Indice de Calor22.9°C ráfagas maxima (última hora)11.1 kmh (6.0 kts) at: 11:00
ráfagas maxima (desde medianoche)13.0 kmh (7.0 kts) at: 02:31 Maximo media de un minuto (desde medianoche)8.3 kmh (4.5 kts) at: 00:00
Lluvia (última hora)0.0 mm Lluvia (desde medianoche)0.0 mm (0.00 in.)---
Lluvia Este mes 6.9 mm (0.27 in.) Lluvia Hasta la fecha este año286.5 mm (11.28 in.)
Lluvia máxima por minuto (última hora)0.0 mm/min Lluvia maxima por hora (últimas 6 horas)0.0 mm/hora
Lluvia de ayer 0.0 mm Punto de rocío 17.8°C (Wet Bulb :19.4°C )
Humedad 76 %, Humidex 28.0°C Barómetro corregido a msl1017.0 mb
cambio de presión+0.2 mb (última hora) Tendencia (últimas 1 hora)ESTACIONARIO
cambio de presión (últimas 12 horas)+1.1 mb cambio de presión (últimas 6 horas)+0.9 mb
Current Temp. Interna 27.8°C
Current Hum. Interna 54%


Última imagen cámara web


Weather report/warning/Metars

Murcia / Alcantarilla, Spain (LERI) 37-57N 001-14W 75M
Oct 17, 2021 - 05:30 AM EDT / 2021.10.17 0930 UTC
Wind: from the NNE (020 degrees) at 1 MPH (1 KT):0
Visibility: greater than 7 mile(s):0
Sky conditions: mostly clear
Temperature: 73 F (23 C)
Dew Point: 62 F (17 C)
Relative Humidity: 68%
Pressure (altimeter): 30.06 in. Hg (1018 hPa)
ob: LERI 170930Z 02001KT 9999 FEW018 23/17 Q1018 NOSIG
cycle: 9
Station name not available
Oct 17, 2021 - 05:30 AM EDT / 2021.10.17 0930 UTC
Wind: Calm:0
Visibility: greater than 7 mile(s):0
Sky conditions: mostly clear
Temperature: 71 F (22 C)
Dew Point: 62 F (17 C)
Relative Humidity: 73%
Pressure (altimeter): 30.09 in. Hg (1019 hPa)
ob: LEMI 170930Z 00000KT 9999 FEW020 22/17 Q1019
cycle: 9
Alicante / El Altet, Spain (LEAL) 38-17N 000-33W 31M
Oct 17, 2021 - 05:30 AM EDT / 2021.10.17 0930 UTC
Wind: Calm:0
Visibility: greater than 7 mile(s):0
Sky conditions: mostly clear
Temperature: 71 F (22 C)
Dew Point: 62 F (17 C)
Relative Humidity: 73%
Pressure (altimeter): 30.06 in. Hg (1018 hPa)
ob: LEAL 170930Z 00000KT 9999 FEW060 22/17 Q1018 NOSIG
cycle: 9



La informacion se graba a intervalos de 2 minutos, pero hay info grabada cada minuto. Optimizado para 800*600 y Color verdadero. Use el boton de

Use the RECARGA en su navegador para recojer la ulima info.

Clicar aquí para regarga diaria de medias/extremas del mes














Created by "Weather Display" software version 10.37S at this start time/date 5:32:09 16/10/2021

La estación de MeteoMurcia.com, publica sus datos en los siguientes proyectos:

Weather Underground PWS IMURCIAP2 Meteoclimatic www.awekas.at

W3Counter
Web Analytics